Flight Track Log - Related Links

Times and Time Zones

All times are in EDT time to prevent confusion due to time zone crossing. See the EEA2756 flight status page for this flight to view local times or setup timezone preferences in your user account.

Time Position Orientation Groundspeed Altitude Reporting Facility
EDT Latitude Longitude Course Direction KTS MPH feet Rate Location/Type
Sat 05:05:00 AM 34.4804 118.4161 257° West  Level Estimated
Sat 05:06:00 AM 34.4620 118.3247 256° West  Level Estimated
Sat 05:07:00 AM 34.4435 118.2334 256° West  Level Estimated
Sat 05:08:00 AM 34.4249 118.1421 256° West  Level Estimated
Sat 05:09:00 AM 34.4072 118.0559 256° West  Level Estimated
Sat 05:10:00 AM 34.3896 117.9697 256° West  Level Estimated
Sat 05:11:00 AM 34.3718 117.8836 256° West  Level Estimated
Sat 05:12:00 AM 34.3540 117.7976 256° West  Level Estimated
Sat 05:13:00 AM 34.3362 117.7115 256° West  Level Estimated
Sat 05:14:00 AM 34.3182 117.6255 256° West  Level Estimated
Sat 05:15:00 AM 34.3003 117.5395 256° West  Level Estimated
Sat 05:16:00 AM 34.2822 117.4536 256° West  Level Estimated
Sat 05:17:00 AM 34.2641 117.3677 256° West  Level Estimated
Sat 05:18:00 AM 34.2460 117.2819 256° West  Level Estimated
Sat 05:19:00 AM 34.2277 117.1960 256° West  Level Estimated
Sat 05:20:00 AM 34.2095 117.1103 256° West  Level Estimated
Sat 05:21:00 AM 34.1911 117.0245 256° West  Level Estimated
Sat 05:22:00 AM 34.1727 116.9388 255° West  Level Estimated
Sat 05:23:00 AM 34.1543 116.8531 255° West  Level Estimated
Sat 05:24:00 AM 34.1357 116.7675 255° West  Level Estimated
Sat 05:25:00 AM 34.1172 116.6819 255° West  Level Estimated
Sat 05:26:00 AM 34.0985 116.5963 255° West  Level Estimated
Sat 05:27:00 AM 34.0798 116.5108 255° West  Level Estimated
Sat 05:28:00 AM 34.0611 116.4253 255° West  Level Estimated
Sat 05:29:00 AM 34.0423 116.3399 255° West  Level Estimated
Sat 05:30:00 AM 34.0234 116.2545 255° West  Level Estimated
Sat 05:31:00 AM 34.0045 116.1691 255° West  Level Estimated
Sat 05:32:00 AM 33.9855 116.0838 255° West  Level Estimated
Sat 05:33:00 AM 33.9664 115.9985 255° West  Level Estimated
Sat 05:34:00 AM 33.9473 115.9132 255° West  Level Estimated
Sat 05:35:00 AM 33.9281 115.8280 255° West  Level Estimated
Sat 05:36:00 AM 33.9089 115.7428 255° West  Level Estimated
Sat 05:37:00 AM 33.8896 115.6577 255° West  Level Estimated
Sat 05:38:00 AM 33.8703 115.5726 255° West  Level Estimated
Sat 05:39:00 AM 33.8509 115.4875 255° West  Level Estimated
Sat 05:40:00 AM 33.8314 115.4025 255° West  Level Estimated
Sat 05:41:00 AM 33.8119 115.3175 255° West  Level Estimated
Sat 05:42:00 AM 33.7923 115.2326 255° West  Level Estimated
Sat 05:43:00 AM 33.7727 115.1477 254° West  Level Estimated
Sat 05:44:00 AM 33.7530 115.0628 254° West  Level Estimated
Sat 05:45:00 AM 33.7332 114.9780 254° West  Level Estimated
Sat 05:46:00 AM 33.7134 114.8932 254° West  Level Estimated
Sat 05:47:00 AM 33.6936 114.8084 254° West  Level Estimated
Sat 05:48:00 AM 33.6736 114.7237 254° West  Level Estimated
Sat 05:49:00 AM 33.6536 114.6390 254° West  Level Estimated
Sat 05:50:00 AM 33.6336 114.5544 254° West  Level Estimated
Sat 05:51:00 AM 33.6135 114.4698 254° West  Level Estimated
Sat 05:52:00 AM 33.5934 114.3852 254° West  Level Estimated
Sat 05:53:00 AM 33.5731 114.3007 254° West  Level Estimated
Sat 05:54:00 AM 33.5529 114.2163 254° West  Level Estimated
Sat 05:55:00 AM 33.5325 114.1318 254° West  Level Estimated
Sat 05:56:00 AM 33.5122 114.0474 254° West  Level Estimated
Sat 05:57:00 AM 33.4917 113.9631 254° West  Level Estimated
Sat 05:58:00 AM 33.4712 113.8788 254° West  Level Estimated
Sat 05:59:00 AM 33.4507 113.7945 254° West  Level Estimated
Sat 06:00:00 AM 33.4300 113.7102 254° West  Level Estimated
Sat 06:01:00 AM 33.4094 113.6260 254° West  Level Estimated
Sat 06:02:00 AM 33.3886 113.5419 254° West  Level Estimated
Sat 06:03:00 AM 33.3679 113.4578 254° West  Level Estimated
Sat 06:04:00 AM 33.3470 113.3737 253° West  Level Estimated
Sat 06:05:00 AM 33.3261 113.2897 253° West  Level Estimated
Sat 06:06:00 AM 33.3052 113.2057 253° West  Level Estimated
Sat 06:07:00 AM 33.2842 113.1217 253° West  Level Estimated
Sat 06:08:00 AM 33.2631 113.0378 253° West  Level Estimated
Sat 06:09:00 AM 33.2420 112.9539 253° West  Level Estimated
Sat 06:10:00 AM 33.2208 112.8701 253° West  Level Estimated
Sat 06:11:00 AM 33.1996 112.7863 253° West  Level Estimated
Sat 06:12:00 AM 33.1783 112.7025 253° West  Level Estimated
Sat 06:13:00 AM 33.1569 112.6188 253° West  Level Estimated
Sat 06:14:00 AM 33.1355 112.5352 253° West  Level Estimated
Sat 06:15:00 AM 33.1141 112.4515 253° West  Level Estimated
Sat 06:16:00 AM 33.0925 112.3679 253° West  Level Estimated
Sat 06:17:00 AM 33.0710 112.2844 253° West  Level Estimated
Sat 06:18:00 AM 33.0493 112.2009 253° West  Level Estimated
Sat 06:19:00 AM 33.0276 112.1174 253° West  Level Estimated
Sat 06:20:00 AM 33.0059 112.0340 253° West  Level Estimated
Sat 06:21:00 AM 32.9841 111.9506 253° West  Level Estimated
Sat 06:22:00 AM 32.9623 111.8673 253° West  Level Estimated
Sat 06:23:00 AM 32.9404 111.7840 253° West  Level Estimated
Sat 06:24:00 AM 32.9184 111.7007 253° West  Level Estimated
Sat 06:25:00 AM 32.8964 111.6175 253° West  Level Estimated
Sat 06:26:00 AM 32.8743 111.5343 252° West  Level Estimated
Sat 06:27:00 AM 32.8522 111.4512 252° West  Level Estimated
Sat 06:28:00 AM 32.8300 111.3681 252° West  Level Estimated
Sat 06:29:00 AM 32.8078 111.2850 252° West  Level Estimated
Sat 06:30:00 AM 32.7855 111.2020 252° West  Level Estimated
Sat 06:31:00 AM 32.7631 111.1191 252° West  Level Estimated
Sat 06:32:00 AM 32.7407 111.0361 252° West  Level Estimated
Sat 06:33:00 AM 32.7183 110.9532 252° West  Level Estimated
Sat 06:34:00 AM 32.6958 110.8704 252° West  Level Estimated
Sat 06:35:00 AM 32.6732 110.7876 252° West  Level Estimated
Sat 06:36:00 AM 32.6506 110.7048 252° West  Level Estimated
Sat 06:37:00 AM 32.6279 110.6221 252° West  Level Estimated
Sat 06:38:00 AM 32.6052 110.5394 252° West  Level Estimated
Sat 06:39:00 AM 32.5824 110.4568 252° West  Level Estimated
Sat 06:40:00 AM 32.5596 110.3742 252° West  Level Estimated
Sat 06:41:00 AM 32.5367 110.2917 252° West  Level Estimated
Sat 06:42:00 AM 32.5138 110.2092 252° West  Level Estimated
Sat 06:43:00 AM 32.4908 110.1267 252° West  Level Estimated
Sat 06:44:00 AM 32.4677 110.0443 252° West  Level Estimated
Sat 06:45:00 AM 32.4446 109.9619 252° West  Level Estimated
Sat 06:46:00 AM 32.4215 109.8795 252° West  Level Estimated
Sat 06:47:00 AM 32.3983 109.7972 252° West  Level Estimated
Sat 06:48:00 AM 32.3750 109.7150 252° West  Level Estimated
Sat 06:49:00 AM 32.3517 109.6328 251° West  Level Estimated
Sat 06:50:00 AM 32.3283 109.5506 251° West  Level Estimated
Sat 06:51:00 AM 32.3049 109.4685 251° West  Level Estimated
Sat 06:52:00 AM 32.2814 109.3864 251° West  Level Estimated
Sat 06:53:00 AM 32.2579 109.3044 251° West  Level Estimated
Sat 06:54:00 AM 32.2343 109.2224 251° West  Level Estimated
Sat 06:55:00 AM 32.2107 109.1404 251° West  Level Estimated
Sat 06:56:00 AM 32.1870 109.0585 251° West  Level Estimated
Sat 06:57:00 AM 32.1632 108.9766 251° West  Level Estimated
Sat 06:58:00 AM 32.1394 108.8948 251° West  Level Estimated
Sat 06:59:00 AM 32.1156 108.8130 251° West  Level Estimated
Sat 07:00:00 AM 32.0917 108.7313 251° West  Level Estimated
Sat 07:01:00 AM 32.0677 108.6496 251° West  Level Estimated
Sat 07:02:00 AM 32.0437 108.5679 251° West  Level Estimated
Sat 07:03:00 AM 32.0197 108.4863 251° West  Level Estimated
Sat 07:04:00 AM 31.9956 108.4047 251° West  Level Estimated
Sat 07:05:00 AM 31.9714 108.3232 251° West  Level Estimated
Sat 07:06:00 AM 31.9472 108.2417 251° West  Level Estimated
Sat 07:07:00 AM 31.9229 108.1602 251° West  Level Estimated
Sat 07:08:00 AM 31.8986 108.0788 251° West  Level Estimated
Sat 07:09:00 AM 31.8742 107.9975 251° West  Level Estimated
Sat 07:10:00 AM 31.8498 107.9162 251° West  Level Estimated
Sat 07:11:00 AM 31.8253 107.8349 251° West  Level Estimated
Sat 07:12:00 AM 31.8008 107.7537 250° West  Level Estimated
Sat 07:13:00 AM 31.7763 107.6725 250° West  Level Estimated
Sat 07:14:00 AM 31.7516 107.5914 250° West  Level Estimated
Sat 07:15:00 AM 31.7269 107.5103 250° West  Level Estimated
Sat 07:16:00 AM 31.7022 107.4292 250° West  Level Estimated
Sat 07:17:00 AM 31.6774 107.3482 250° West  Level Estimated
Sat 07:18:00 AM 31.6526 107.2672 250° West  Level Estimated
Sat 07:19:00 AM 31.6277 107.1863 250° West  Level Estimated
Sat 07:20:00 AM 31.6028 107.1054 250° West  Level Estimated
Sat 07:21:00 AM 31.5778 107.0246 250° West  Level Estimated
Sat 07:22:00 AM 31.5528 106.9438 250° West  Level Estimated
Sat 07:23:00 AM 31.5277 106.8630 250° West  Level Estimated
Sat 07:24:00 AM 31.5026 106.7823 250° West  Level Estimated
Sat 07:25:00 AM 31.4774 106.7017 250° West  Level Estimated
Sat 07:26:00 AM 31.4521 106.6210 250° West  Level Estimated
Sat 07:27:00 AM 31.4268 106.5405 250° West  Level Estimated
Sat 07:28:00 AM 31.4015 106.4599 250° West  Level Estimated
Sat 07:29:00 AM 31.3761 106.3794 250° West  Level Estimated
Sat 07:30:00 AM 31.3507 106.2990 250° West  Level Estimated
Sat 07:31:00 AM 31.3252 106.2186 250° West  Level Estimated
Sat 07:32:00 AM 31.2996 106.1382 250° West  Level Estimated
Sat 07:33:00 AM 31.2740 106.0579 250° West  Level Estimated
Sat 07:34:00 AM 31.2484 105.9776 250° West  Level Estimated
Sat 07:35:00 AM 31.2227 105.8974 249° West  Level Estimated
Sat 07:36:00 AM 31.1970 105.8172 249° West  Level Estimated
Sat 07:37:00 AM 31.1712 105.7371 249° West  Level Estimated
Sat 07:38:00 AM 31.1453 105.6570 249° West  Level Estimated
Sat 07:39:00 AM 31.1195 105.5769 249° West  Level Estimated
Sat 07:40:00 AM 31.0935 105.4969 249° West  Level Estimated
Sat 07:41:00 AM 31.0675 105.4169 249° West  Level Estimated
Sat 07:42:00 AM 31.0415 105.3370 249° West  Level Estimated
Sat 07:43:00 AM 31.0154 105.2571 249° West  Level Estimated
Sat 07:44:00 AM 30.9893 105.1773 249° West  Level Estimated
Sat 07:45:00 AM 30.9631 105.0975 249° West  Level Estimated
Sat 07:46:00 AM 30.9369 105.0178 249° West  Level Estimated
Sat 07:47:00 AM 30.9106 104.9380 249° West  Level Estimated
Sat 07:48:00 AM 30.8843 104.8584 249° West  Level Estimated
Sat 07:49:00 AM 30.8579 104.7788 249° West  Level Estimated
Sat 07:50:00 AM 30.8314 104.6992 249° West  Level Estimated
Sat 07:51:00 AM 30.8050 104.6197 249° West  Level Estimated
Sat 07:52:00 AM 30.7784 104.5402 249° West  Level Estimated
Sat 07:53:00 AM 30.7519 104.4607 249° West  Level Estimated
Sat 07:54:00 AM 30.7253 104.3813 249° West  Level Estimated
Sat 07:55:00 AM 30.6986 104.3020 249° West  Level Estimated
Sat 07:56:00 AM 30.6719 104.2227 249° West  Level Estimated
Sat 07:57:00 AM 30.6451 104.1434 249° West  Level Estimated
Sat 07:58:00 AM 30.6183 104.0642 249° West  Level Estimated
Sat 07:59:00 AM 30.5914 103.9850 249° West  Level Estimated
Sat 08:00:00 AM 30.5785 103.9471 248° West  Level Estimated
Sat 08:01:00 AM 30.5785 103.9471 North  Level Estimated
Sat 08:02:00 AM 30.5785 103.9471 North  Level Estimated
Sat 08:03:00 AM 30.5785 103.9471 North  Level Estimated
Sat 08:04:00 AM 30.5785 103.9471 North  Level Estimated
Sat 08:05:00 AM 30.5785 103.9471 North  Level Estimated
Sat 08:06:00 AM 30.5785 103.9471 North  Level Estimated
Sat 08:07:00 AM 30.5785 103.9471 North  Level Estimated
Sat 08:08:00 AM 30.5785 103.9471 North  Level Estimated
Sat 08:09:00 AM 30.5785 103.9471 North  Level Estimated
Sat 08:10:00 AM 30.5785 103.9471 North  Level Estimated
Sat 08:11:00 AM 30.5785 103.9471 North  Level Estimated
Sat 08:12:00 AM 30.5785 103.9471 North  Level Estimated
Sat 08:13:00 AM 30.5785 103.9471 North  Level Estimated
Sat 08:14:00 AM 30.5785 103.9471 North  Level Estimated
Sat 08:15:00 AM 30.5785 103.9471 North  Level Estimated
Sat 08:16:00 AM 30.5785 103.9471 North  Level Estimated

Login

Don't have an account? Register now (free) for customized features, flight alerts, and more!